createdAt,value
2023-03-12T00:01:19.483Z,6.28
2023-03-12T00:03:50.103Z,6.03
2023-03-12T00:06:21.189Z,4.68
2023-03-12T00:08:50.034Z,5.22
2023-03-12T00:11:21.074Z,5.68
2023-03-12T00:13:51.304Z,6.63
2023-03-12T00:16:19.812Z,16.42
2023-03-12T00:18:51.651Z,14.98
2023-03-12T00:21:20.528Z,20.55
2023-03-12T00:23:49.319Z,6.72
2023-03-12T00:26:18.605Z,20.05
2023-03-12T00:28:48.423Z,12.15
2023-03-12T00:31:18.527Z,15.63
2023-03-12T00:33:49.433Z,6.72
2023-03-12T00:36:19.974Z,5.50
2023-03-12T00:38:48.345Z,9.60
2023-03-12T00:41:16.669Z,6.72
2023-03-12T00:43:44.934Z,6.93
2023-03-12T00:46:13.502Z,6.78
2023-03-12T00:48:42.448Z,6.72
2023-03-12T00:51:11.099Z,6.65
2023-03-12T00:53:40.908Z,5.82
2023-03-12T00:56:10.389Z,6.25
2023-03-12T00:58:38.604Z,6.05
2023-03-12T01:01:07.684Z,4.88
2023-03-12T01:03:36.976Z,5.10
2023-03-12T01:06:05.988Z,5.18
2023-03-12T01:08:34.863Z,4.90
2023-03-12T01:11:05.235Z,4.38
2023-03-12T01:13:33.569Z,6.28
2023-03-12T01:16:01.944Z,5.05
2023-03-12T01:18:30.812Z,5.07
2023-03-12T01:20:59.532Z,5.47
2023-03-12T01:23:28.074Z,4.57
2023-03-12T01:25:56.583Z,5.68
2023-03-12T01:28:27.278Z,4.53
2023-03-12T01:30:55.618Z,5.03
2023-03-12T01:33:24.183Z,5.05
2023-03-12T01:35:52.722Z,4.82
2023-03-12T01:38:21.317Z,4.28
2023-03-12T01:40:49.580Z,4.30
2023-03-12T01:43:28.602Z,4.43
2023-03-12T01:46:22.984Z,4.75
2023-03-12T01:48:56.513Z,4.15
2023-03-12T01:51:28.219Z,5.00
2023-03-12T01:54:01.778Z,3.35
2023-03-12T01:56:35.885Z,3.53
2023-03-12T02:01:36.849Z,4.95
2023-03-12T02:04:05.561Z,2.75
2023-03-12T02:06:40.443Z,3.38
2023-03-12T02:09:09.286Z,4.32
2023-03-12T02:11:37.921Z,3.40
2023-03-12T02:14:07.890Z,4.07
2023-03-12T02:16:36.312Z,4.20
2023-03-12T02:19:12.410Z,4.00
2023-03-12T02:21:41.146Z,3.92
2023-03-12T02:24:19.640Z,3.95
2023-03-12T02:26:49.987Z,5.85
2023-03-12T02:29:19.367Z,5.65
2023-03-12T02:31:53.318Z,3.35
2023-03-12T02:34:21.754Z,3.83
2023-03-12T02:36:50.521Z,5.47
2023-03-12T02:39:19.729Z,3.92
2023-03-12T02:41:53.685Z,5.65
2023-03-12T02:44:25.252Z,4.55
2023-03-12T02:46:56.866Z,4.20
2023-03-12T02:49:27.526Z,4.47
2023-03-12T02:51:56.334Z,3.53
2023-03-12T02:54:25.272Z,4.63
2023-03-12T02:56:55.171Z,4.82
2023-03-12T02:59:26.943Z,4.00
2023-03-12T03:01:59.806Z,3.75
2023-03-12T03:04:29.368Z,4.35
2023-03-12T03:06:58.718Z,4.45
2023-03-12T03:09:27.601Z,4.72
2023-03-12T03:11:58.725Z,3.88
2023-03-12T03:14:28.878Z,4.03
2023-03-12T03:16:57.312Z,5.05
2023-03-12T03:19:25.767Z,5.65
2023-03-12T03:21:54.075Z,3.13
2023-03-12T03:24:22.554Z,4.65
2023-03-12T03:26:50.910Z,4.15
2023-03-12T03:29:20.680Z,4.55
2023-03-12T03:31:49.221Z,4.30
2023-03-12T03:34:18.582Z,3.67
2023-03-12T03:36:47.100Z,4.30
2023-03-12T03:39:17.593Z,5.47
2023-03-12T03:41:47.386Z,4.15
2023-03-12T03:44:20.208Z,4.82
2023-03-12T03:46:49.934Z,4.25
2023-03-12T03:49:18.605Z,4.40
2023-03-12T03:51:47.142Z,3.70
2023-03-12T03:54:19.206Z,5.03
2023-03-12T03:56:48.334Z,5.45
2023-03-12T03:59:16.725Z,4.00
2023-03-12T04:01:47.435Z,6.18
2023-03-12T04:04:16.170Z,3.88
2023-03-12T04:06:44.706Z,4.38
2023-03-12T04:09:13.095Z,4.00
2023-03-12T04:11:42.082Z,4.55
2023-03-12T04:14:12.538Z,4.63
2023-03-12T04:16:43.691Z,5.45
2023-03-12T04:19:13.785Z,4.07
2023-03-12T04:21:42.387Z,5.43
2023-03-12T04:24:15.578Z,4.70
2023-03-12T04:26:44.889Z,3.20
2023-03-12T04:29:13.830Z,4.95
2023-03-12T04:31:43.686Z,5.60
2023-03-12T04:34:14.616Z,3.92
2023-03-12T04:36:48.076Z,4.88
2023-03-12T04:39:19.591Z,4.93
2023-03-12T04:41:50.512Z,3.42
2023-03-12T04:44:19.394Z,3.95
2023-03-12T04:46:47.887Z,5.00
2023-03-12T04:51:49.991Z,4.03
2023-03-12T04:54:21.111Z,4.63
2023-03-12T04:56:50.229Z,4.00
2023-03-12T04:59:19.491Z,3.10
2023-03-12T05:01:48.156Z,4.07
2023-03-12T05:04:23.016Z,4.00
2023-03-12T05:06:52.321Z,3.97
2023-03-12T05:09:20.739Z,4.15
2023-03-12T05:11:49.552Z,4.10
2023-03-12T05:14:21.158Z,4.55
2023-03-12T05:16:50.593Z,3.63
2023-03-12T05:19:19.313Z,4.25
2023-03-12T05:21:49.214Z,3.78
2023-03-12T05:24:19.095Z,5.40
2023-03-12T05:26:48.710Z,5.03
2023-03-12T05:29:19.644Z,5.53
2023-03-12T05:31:47.969Z,4.03
2023-03-12T05:34:16.424Z,4.45
2023-03-12T05:36:46.554Z,4.20
2023-03-12T05:39:20.343Z,2.85
2023-03-12T05:41:49.538Z,4.55
2023-03-12T05:44:20.275Z,3.83
2023-03-12T05:46:53.626Z,3.15
2023-03-12T05:51:55.527Z,4.22
2023-03-12T05:54:26.735Z,4.10
2023-03-12T05:56:56.898Z,3.20
2023-03-12T05:59:26.991Z,3.92
2023-03-12T06:01:58.479Z,3.90
2023-03-12T06:04:27.214Z,4.43
2023-03-12T06:06:55.575Z,4.25
2023-03-12T06:09:24.599Z,4.25
2023-03-12T06:11:55.463Z,4.65
2023-03-12T06:14:23.801Z,3.58
2023-03-12T06:16:52.329Z,3.38
2023-03-12T06:19:20.918Z,2.75
2023-03-12T06:21:51.228Z,4.05
2023-03-12T06:24:20.024Z,5.63
2023-03-12T06:26:57.756Z,3.17
2023-03-12T06:29:26.139Z,4.00
2023-03-12T06:31:56.088Z,2.95
2023-03-12T06:34:24.445Z,4.88
2023-03-12T06:36:52.740Z,4.32
2023-03-12T06:39:21.262Z,3.05
2023-03-12T06:41:49.762Z,3.70
2023-03-12T06:44:19.691Z,4.43
2023-03-12T06:46:48.174Z,4.25
2023-03-12T06:49:16.808Z,4.72
2023-03-12T06:51:45.148Z,3.92
2023-03-12T06:54:13.506Z,3.83
2023-03-12T06:56:42.226Z,4.82
2023-03-12T06:59:10.666Z,4.63
2023-03-12T07:01:40.455Z,4.50
2023-03-12T07:04:08.675Z,4.28
2023-03-12T07:06:37.025Z,3.88
2023-03-12T07:09:06.149Z,4.32
2023-03-12T07:11:34.697Z,3.97
2023-03-12T07:14:03.535Z,3.53
2023-03-12T07:16:31.893Z,3.92
2023-03-12T07:19:01.635Z,3.67
2023-03-12T07:21:31.860Z,3.97
2023-03-12T07:24:01.105Z,5.00
2023-03-12T07:26:29.504Z,3.50
2023-03-12T07:28:58.341Z,4.15
2023-03-12T07:31:26.620Z,3.47
2023-03-12T07:33:55.143Z,4.32
2023-03-12T07:36:24.965Z,3.22
2023-03-12T07:38:53.437Z,3.90
2023-03-12T07:41:21.823Z,3.47
2023-03-12T07:43:50.610Z,4.00
2023-03-12T07:46:18.943Z,3.58
2023-03-12T07:48:48.711Z,3.72
2023-03-12T07:51:16.984Z,3.88
2023-03-12T07:53:46.638Z,3.90
2023-03-12T07:56:15.060Z,5.60
2023-03-12T07:58:43.723Z,3.85
2023-03-12T08:01:12.293Z,3.95
2023-03-12T08:03:40.852Z,3.00
2023-03-12T08:06:09.349Z,5.50
2023-03-12T08:08:41.704Z,2.38
2023-03-12T08:11:11.595Z,5.10
2023-03-12T08:13:39.916Z,4.70
2023-03-12T08:16:09.531Z,4.25
2023-03-12T08:18:38.281Z,3.60
2023-03-12T08:21:06.882Z,3.28
2023-03-12T08:23:36.844Z,4.25
2023-03-12T08:26:05.252Z,3.60
2023-03-12T08:28:34.957Z,3.90
2023-03-12T08:31:03.644Z,4.25
2023-03-12T08:33:33.536Z,3.25
2023-03-12T08:36:02.265Z,3.88
2023-03-12T08:38:30.703Z,3.58
2023-03-12T08:40:59.806Z,3.08
2023-03-12T08:43:29.640Z,3.10
2023-03-12T08:46:01.285Z,3.75
2023-03-12T08:48:31.543Z,2.95
2023-03-12T08:51:01.121Z,3.70
2023-03-12T08:53:31.379Z,3.50
2023-03-12T08:56:00.486Z,4.63
2023-03-12T08:58:30.415Z,2.92
2023-03-12T09:01:00.325Z,3.92
2023-03-12T09:03:28.712Z,3.00
2023-03-12T09:06:09.896Z,4.15
2023-03-12T09:08:38.333Z,2.65
2023-03-12T09:11:06.901Z,5.15
2023-03-12T09:13:55.525Z,3.75
2023-03-12T09:16:24.956Z,4.13
2023-03-12T09:18:53.388Z,3.47
2023-03-12T09:21:22.106Z,3.72
2023-03-12T09:23:51.230Z,4.25
2023-03-12T09:26:19.505Z,3.38
2023-03-12T09:28:48.077Z,3.92
2023-03-12T09:31:16.346Z,4.30
2023-03-12T09:33:46.716Z,4.18
2023-03-12T09:36:15.018Z,4.85
2023-03-12T09:38:43.514Z,5.15
2023-03-12T09:41:21.368Z,3.50
2023-03-12T09:43:55.588Z,6.38
2023-03-12T09:46:27.955Z,3.10
2023-03-12T09:51:34.327Z,3.67
2023-03-12T09:54:07.444Z,3.33
2023-03-12T09:56:36.140Z,5.35
2023-03-12T09:59:04.995Z,3.53
2023-03-12T10:01:45.161Z,3.75
2023-03-12T10:04:58.565Z,4.75
2023-03-12T10:07:35.090Z,4.00
2023-03-12T10:10:15.464Z,5.25
2023-03-12T10:12:55.274Z,3.50
2023-03-12T10:15:35.295Z,4.80
2023-03-12T10:18:19.944Z,4.15
2023-03-12T10:21:00.195Z,4.22
2023-03-12T10:23:41.055Z,4.85
2023-03-12T10:26:14.958Z,3.92
2023-03-12T10:28:46.971Z,3.90
2023-03-12T10:31:21.088Z,2.88
2023-03-12T10:33:54.362Z,3.42
2023-03-12T10:36:28.452Z,3.92
2023-03-12T10:38:56.589Z,4.60
2023-03-12T10:41:27.754Z,4.22
2023-03-12T10:43:58.598Z,3.92
2023-03-12T10:46:59.888Z,3.42
2023-03-12T10:49:34.695Z,2.63
2023-03-12T10:52:08.191Z,3.50
2023-03-12T10:54:38.691Z,2.78
2023-03-12T10:57:07.442Z,2.80
2023-03-12T10:59:39.038Z,2.42
2023-03-12T11:02:32.891Z,3.22
2023-03-12T11:05:03.503Z,3.00
2023-03-12T11:07:35.650Z,2.53
2023-03-12T11:10:25.838Z,3.47
2023-03-12T11:13:03.343Z,3.55
2023-03-12T11:15:40.703Z,2.67
2023-03-12T11:18:22.021Z,2.85
2023-03-12T11:20:53.058Z,1.95
2023-03-12T11:23:27.347Z,2.28
2023-03-12T11:25:58.393Z,2.47
2023-03-12T11:28:33.739Z,2.53
2023-03-12T11:31:03.297Z,2.38
2023-03-12T11:33:31.751Z,3.10
2023-03-12T11:36:09.910Z,2.47
2023-03-12T11:38:44.676Z,1.77
2023-03-12T11:41:33.927Z,2.95
2023-03-12T11:44:19.877Z,3.00
2023-03-12T11:47:01.068Z,2.20
2023-03-12T11:49:43.246Z,2.22
2023-03-12T11:52:20.889Z,1.75
2023-03-12T11:55:16.960Z,1.73
2023-03-12T11:57:58.332Z,1.67
2023-03-12T12:00:33.893Z,2.92
2023-03-12T12:03:25.397Z,1.92
2023-03-12T12:06:03.325Z,1.33
2023-03-12T12:08:59.631Z,2.10
2023-03-12T12:11:42.003Z,1.70
2023-03-12T12:14:21.561Z,1.38
2023-03-12T12:17:08.478Z,1.25
2023-03-12T12:19:52.234Z,0.55
2023-03-12T12:22:37.507Z,0.68
2023-03-12T12:25:30.051Z,1.20
2023-03-12T12:28:21.986Z,0.93
2023-03-12T12:31:16.397Z,0.80
2023-03-12T12:33:56.870Z,0.63
2023-03-12T12:36:28.702Z,0.77
2023-03-12T12:39:05.843Z,0.82
2023-03-12T12:41:37.186Z,0.82
2023-03-12T12:44:14.043Z,0.60
2023-03-12T12:46:46.492Z,0.43
2023-03-12T12:51:50.038Z,0.20
2023-03-12T12:54:27.524Z,0.50
2023-03-12T12:57:03.635Z,0.50
2023-03-12T12:59:40.043Z,0.68
2023-03-12T13:02:18.048Z,0.30
2023-03-12T13:04:49.501Z,0.38
2023-03-12T13:07:35.189Z,0.85
2023-03-12T13:10:09.057Z,0.80
2023-03-12T13:12:44.619Z,0.70
2023-03-12T13:15:40.847Z,0.30
2023-03-12T13:18:19.610Z,0.80
2023-03-12T13:21:10.904Z,0.85
2023-03-12T13:23:47.136Z,0.73
2023-03-12T13:26:31.783Z,0.55
2023-03-12T13:29:29.128Z,0.75
2023-03-12T13:32:12.818Z,0.40
2023-03-12T13:35:00.884Z,0.55
2023-03-12T13:38:18.851Z,0.73
2023-03-12T13:41:08.092Z,0.28
2023-03-12T13:44:07.773Z,0.70
2023-03-12T13:46:57.817Z,0.60
2023-03-12T13:49:54.761Z,0.45
2023-03-12T13:52:43.707Z,0.17
2023-03-12T13:55:36.833Z,0.30
2023-03-12T13:58:30.106Z,0.30
2023-03-12T14:01:14.844Z,1.27
2023-03-12T14:04:07.015Z,0.40
2023-03-12T14:07:05.733Z,0.70
2023-03-12T14:10:06.119Z,0.35
2023-03-12T14:12:55.967Z,0.43
2023-03-12T14:15:52.770Z,0.45
2023-03-12T14:18:45.778Z,0.47
2023-03-12T14:21:41.046Z,0.75
2023-03-12T14:24:32.711Z,0.90
2023-03-12T14:27:26.024Z,0.70
2023-03-12T14:30:17.709Z,0.22
2023-03-12T14:33:10.032Z,0.57
2023-03-12T14:35:56.739Z,0.60
2023-03-12T14:38:49.119Z,0.32
2023-03-12T14:41:37.747Z,0.88
2023-03-12T14:44:31.035Z,1.60
2023-03-12T14:47:16.697Z,1.92
2023-03-12T14:50:06.019Z,1.63
2023-03-12T14:52:47.673Z,0.98
2023-03-12T14:55:35.969Z,0.73
2023-03-12T14:58:26.724Z,0.70
2023-03-12T15:01:21.050Z,0.60
2023-03-12T15:04:05.644Z,0.55
2023-03-12T15:06:46.899Z,0.70
2023-03-12T15:09:19.489Z,0.77
2023-03-12T15:11:55.516Z,0.70
2023-03-12T15:14:28.313Z,1.17
2023-03-12T15:17:00.292Z,1.15
2023-03-12T15:19:34.683Z,1.80
2023-03-12T15:22:04.518Z,1.73
2023-03-12T15:24:40.806Z,2.28
2023-03-12T15:27:31.021Z,2.28
2023-03-12T15:30:22.702Z,3.17
2023-03-12T15:33:11.622Z,3.38
2023-03-12T15:35:42.990Z,9.00
2023-03-12T15:38:19.528Z,6.68
2023-03-12T15:40:54.020Z,9.18
2023-03-12T15:43:25.210Z,11.95
2023-03-12T15:46:02.229Z,11.05
2023-03-12T15:48:33.727Z,7.97
2023-03-12T15:51:02.584Z,8.00
2023-03-12T15:53:32.744Z,9.98
2023-03-12T15:56:06.096Z,6.80
2023-03-12T15:58:36.012Z,6.47
2023-03-12T16:01:11.027Z,3.42
2023-03-12T16:03:39.956Z,2.13
2023-03-12T16:06:14.232Z,3.42
2023-03-12T16:08:46.026Z,3.78
2023-03-12T16:11:18.553Z,3.90
2023-03-12T16:13:48.666Z,5.28
2023-03-12T16:16:19.148Z,5.57
2023-03-12T16:18:47.441Z,4.95
2023-03-12T16:21:15.821Z,5.53
2023-03-12T16:23:44.080Z,6.07
2023-03-12T16:26:14.504Z,6.35
2023-03-12T16:28:45.728Z,6.65
2023-03-12T16:31:14.532Z,4.40
2023-03-12T16:33:44.906Z,5.00
2023-03-12T16:36:17.847Z,5.43
2023-03-12T16:38:46.472Z,6.35
2023-03-12T16:41:23.728Z,5.50
2023-03-12T16:43:54.943Z,5.03
2023-03-12T16:46:31.801Z,4.85
2023-03-12T16:50:55.760Z,5.47
2023-03-12T16:52:43.234Z,6.07
2023-03-12T17:18:12.494Z,5.60
2023-03-12T17:22:04.597Z,6.55
2023-03-12T17:25:35.236Z,8.45
2023-03-12T17:40:45.037Z,5.53
2023-03-12T17:45:04.565Z,6.40
2023-03-12T17:59:38.191Z,7.05
2023-03-12T18:10:22.894Z,5.47
2023-03-12T19:33:29.675Z,4.88
2023-03-12T19:36:05.844Z,6.38
2023-03-12T19:38:34.334Z,5.13
2023-03-12T19:41:46.706Z,5.07
2023-03-12T19:55:25.322Z,6.25
2023-03-12T19:59:17.321Z,7.20
2023-03-12T20:02:44.955Z,5.50
2023-03-12T20:06:42.382Z,6.63
2023-03-12T20:09:55.924Z,6.80
2023-03-12T20:12:35.067Z,5.07
2023-03-12T20:15:05.711Z,5.80
2023-03-12T20:17:44.479Z,6.00
2023-03-12T20:20:16.759Z,6.05
2023-03-12T20:22:45.284Z,6.47
2023-03-12T20:25:51.101Z,5.53
2023-03-12T20:28:32.798Z,4.90
2023-03-12T20:31:11.922Z,6.10
2023-03-12T20:33:54.577Z,6.13
2023-03-12T20:36:24.361Z,6.03
2023-03-12T20:38:55.025Z,5.25
2023-03-12T20:41:30.674Z,6.28
2023-03-12T20:44:19.540Z,5.72
2023-03-12T20:51:47.511Z,5.05
2023-03-12T20:54:53.528Z,5.00
2023-03-12T20:57:40.048Z,5.93
2023-03-12T21:07:15.905Z,5.70
2023-03-12T21:13:22.046Z,6.20
2023-03-12T21:16:48.671Z,5.45
2023-03-12T21:27:35.652Z,5.88
2023-03-12T21:34:39.982Z,5.85
2023-03-12T21:38:31.848Z,6.57
2023-03-12T21:48:26.210Z,5.00
2023-03-12T21:55:23.300Z,5.53
2023-03-12T23:06:11.872Z,5.90
2023-03-12T23:43:19.931Z,5.32
2023-03-12T23:46:36.361Z,7.07
2023-03-12T23:50:01.825Z,5.82
